createdAt,value
2023-04-18T08:20:33.550Z,23.2
2023-04-18T08:20:49.132Z,23.2
2023-04-18T08:21:05.089Z,23.2
2023-04-18T08:21:37.120Z,23.2
2023-04-18T08:21:53.140Z,23.2
2023-04-18T08:22:09.319Z,23.2
2023-04-18T08:22:50.453Z,23.21
2023-04-18T08:23:05.072Z,23.21
2023-04-18T08:23:13.486Z,23.21
2023-04-18T08:23:45.166Z,23.21
2023-04-18T08:24:01.205Z,23.22
2023-04-18T08:24:17.160Z,23.22
2023-04-18T08:25:05.834Z,23.23
2023-04-18T08:25:21.154Z,23.23
2023-04-18T08:26:09.230Z,23.23
2023-04-18T08:26:25.234Z,23.23
2023-04-18T08:27:13.204Z,23.24
2023-04-18T08:27:29.211Z,23.25
2023-04-18T08:28:17.204Z,23.25
2023-04-18T08:28:33.248Z,23.25
2023-04-18T08:29:05.237Z,23.25
2023-04-18T08:29:21.234Z,23.25
2023-04-18T08:29:37.237Z,23.25
2023-04-18T08:30:25.285Z,23.25
2023-04-18T08:30:41.313Z,23.26
2023-04-18T08:31:13.264Z,23.26
2023-04-18T08:31:45.326Z,23.26
2023-04-18T08:32:01.357Z,23.27
2023-04-18T08:32:17.324Z,23.27
2023-04-18T08:32:49.306Z,23.27
2023-04-18T08:33:05.356Z,23.27
2023-04-18T08:33:21.270Z,23.27
2023-04-18T08:33:53.269Z,23.27
2023-04-18T08:34:09.250Z,23.27
2023-04-18T08:34:25.276Z,23.27
2023-04-18T08:34:57.276Z,23.28
2023-04-18T08:35:13.354Z,23.29
2023-04-18T08:35:45.293Z,23.29
2023-04-18T08:36:01.260Z,23.29
2023-04-18T08:36:17.287Z,23.29
2023-04-18T08:36:33.299Z,23.3
2023-04-18T08:37:05.303Z,23.3
2023-04-18T08:37:21.269Z,23.3
2023-04-18T08:38:09.285Z,23.31
2023-04-18T08:38:25.349Z,23.31
2023-04-18T08:38:41.368Z,23.32
2023-04-18T08:39:13.682Z,23.32
2023-04-18T08:39:29.331Z,23.32
2023-04-18T08:39:45.337Z,23.33
2023-04-18T08:40:17.316Z,23.34
2023-04-18T08:40:33.351Z,23.34
2023-04-18T08:40:49.479Z,23.34
2023-04-18T08:41:05.467Z,23.34
2023-04-18T08:41:21.323Z,23.34
2023-04-18T08:41:37.506Z,23.34
2023-04-18T08:41:53.608Z,23.34
2023-04-18T08:42:25.331Z,23.35
2023-04-18T08:42:41.330Z,23.36
2023-04-18T08:42:57.336Z,23.36
2023-04-18T08:43:29.357Z,23.36
2023-04-18T08:43:45.321Z,23.36
2023-04-18T08:44:01.342Z,23.37
2023-04-18T08:44:33.332Z,23.38
2023-04-18T08:44:49.334Z,23.38
2023-04-18T08:45:05.331Z,23.38
2023-04-18T08:45:37.374Z,23.39
2023-04-18T08:45:53.425Z,23.39
2023-04-18T08:46:09.413Z,23.39
2023-04-18T08:46:41.342Z,23.39
2023-04-18T08:46:57.388Z,23.4
2023-04-18T08:47:13.352Z,23.41
2023-04-18T08:47:29.352Z,23.41
2023-04-18T08:47:45.411Z,23.41
2023-04-18T08:48:01.446Z,23.41
2023-04-18T08:48:33.371Z,23.41
2023-04-18T08:48:49.361Z,23.42
2023-04-18T08:49:05.377Z,23.42
2023-04-18T08:49:53.407Z,23.43
2023-04-18T08:50:09.373Z,23.43
2023-04-18T08:50:41.429Z,23.45
2023-04-18T08:50:57.405Z,23.45
2023-04-18T08:51:13.436Z,23.45
2023-04-18T08:51:45.393Z,23.45
2023-04-18T08:52:01.468Z,23.45
2023-04-18T08:52:17.394Z,23.45
2023-04-18T08:52:49.412Z,23.46
2023-04-18T08:53:05.499Z,23.46
2023-04-18T08:53:21.413Z,23.47
2023-04-18T08:54:09.413Z,23.48
2023-04-18T08:54:27.238Z,23.48
2023-04-18T08:55:13.476Z,23.48
2023-04-18T08:55:29.438Z,23.48
2023-04-18T08:55:45.469Z,23.48
2023-04-18T08:56:01.651Z,23.49
2023-04-18T08:56:17.378Z,23.5
2023-04-18T08:56:33.427Z,23.5
2023-04-18T08:57:05.400Z,23.5
2023-04-18T08:57:21.414Z,23.5
2023-04-18T08:57:37.437Z,23.5
2023-04-18T08:58:09.420Z,23.51
2023-04-18T08:58:25.458Z,23.51
2023-04-18T08:58:41.437Z,23.51
2023-04-18T08:59:29.514Z,23.52
2023-04-18T08:59:46.687Z,23.52
2023-04-18T09:00:01.424Z,23.52
2023-04-18T09:00:33.515Z,23.53
2023-04-18T09:01:05.625Z,23.53
2023-04-18T09:01:37.542Z,23.54
2023-04-18T09:02:09.555Z,23.54
2023-04-18T09:02:41.529Z,23.55
2023-04-18T09:03:13.464Z,23.55
2023-04-18T09:03:45.490Z,23.55
2023-04-18T09:04:17.526Z,23.56
2023-04-18T09:04:49.516Z,23.56
2023-04-18T09:05:21.436Z,23.56
2023-04-18T09:05:53.505Z,23.57
2023-04-18T09:06:26.666Z,23.57
2023-04-18T09:06:41.486Z,23.57
2023-04-18T09:06:57.484Z,23.57
2023-04-18T09:07:45.487Z,23.58
2023-04-18T09:08:01.556Z,23.58
2023-04-18T09:08:49.494Z,23.59
2023-04-18T09:09:05.480Z,23.59
2023-04-18T09:09:21.506Z,23.59
2023-04-18T09:09:53.527Z,23.59
2023-04-18T09:10:25.555Z,23.59
2023-04-18T09:10:57.517Z,23.59
2023-04-18T09:11:13.515Z,23.59
2023-04-18T09:11:29.779Z,23.6
2023-04-18T09:11:45.561Z,23.59
2023-04-18T09:12:01.731Z,23.6
2023-04-18T09:12:17.573Z,23.6
2023-04-18T09:12:33.585Z,23.61
2023-04-18T09:13:05.577Z,23.61
2023-04-18T09:13:23.566Z,23.61
2023-04-18T09:13:37.530Z,23.61
2023-04-18T09:14:09.672Z,23.61
2023-04-18T09:14:25.555Z,23.61
2023-04-18T09:14:42.092Z,23.61
2023-04-18T09:14:57.606Z,23.61
2023-04-18T09:15:13.645Z,23.61
2023-04-18T09:15:45.532Z,23.62
2023-04-18T09:16:01.861Z,23.62
2023-04-18T09:16:17.554Z,23.62
2023-04-18T09:17:05.606Z,23.63
2023-04-18T09:17:21.583Z,23.63
2023-04-18T09:18:09.700Z,23.63
2023-04-18T09:18:25.585Z,23.63
2023-04-18T09:18:41.633Z,23.64
2023-04-18T09:18:57.605Z,23.64
2023-04-18T09:19:14.003Z,23.64
2023-04-18T09:19:45.624Z,23.64
2023-04-18T09:20:01.739Z,23.64
2023-04-18T09:20:17.623Z,23.64
2023-04-18T09:20:49.616Z,23.64
2023-04-18T09:21:05.626Z,23.64
2023-04-18T09:21:21.768Z,23.64
2023-04-18T09:22:09.598Z,23.65
2023-04-18T09:22:25.649Z,23.65
2023-04-18T09:22:41.613Z,23.65
2023-04-18T09:22:57.654Z,23.66
2023-04-18T09:23:13.626Z,23.66
2023-04-18T09:23:45.627Z,23.66
2023-04-18T09:24:01.652Z,23.66
2023-04-18T09:24:17.628Z,23.66
2023-04-18T09:24:49.624Z,23.66
2023-04-18T09:25:05.612Z,23.66
2023-04-18T09:25:21.606Z,23.66
2023-04-18T09:25:40.886Z,23.66
2023-04-18T09:25:53.646Z,23.66
2023-04-18T09:26:25.647Z,23.66
2023-04-18T09:26:41.636Z,23.68
2023-04-18T09:26:57.633Z,23.68
2023-04-18T09:27:29.641Z,23.68
2023-04-18T09:27:45.670Z,23.68
2023-04-18T09:28:01.665Z,23.68
2023-04-18T09:28:33.637Z,23.68
2023-04-18T09:29:05.774Z,23.69
2023-04-18T09:29:21.654Z,23.69
2023-04-18T09:29:37.651Z,23.7
2023-04-18T09:30:25.650Z,23.7
2023-04-18T09:30:41.661Z,23.7
2023-04-18T09:30:57.662Z,23.7
2023-04-18T09:31:29.625Z,23.71
2023-04-18T09:31:45.673Z,23.71
2023-04-18T09:32:01.684Z,23.71
2023-04-18T09:32:17.627Z,23.71
2023-04-18T09:32:33.745Z,23.71
2023-04-18T09:33:05.800Z,23.72
2023-04-18T09:33:21.637Z,23.72
2023-04-18T09:33:37.634Z,23.72
2023-04-18T09:34:09.615Z,23.73
2023-04-18T09:34:25.628Z,23.73
2023-04-18T09:34:41.624Z,23.73
2023-04-18T09:34:57.622Z,23.73
2023-04-18T09:35:13.653Z,23.74
2023-04-18T09:35:45.664Z,23.75
2023-04-18T09:36:01.672Z,23.75
2023-04-18T09:36:17.641Z,23.75
2023-04-18T09:37:05.675Z,23.75
2023-04-18T09:37:21.630Z,23.76
2023-04-18T09:38:09.674Z,23.77
2023-04-18T09:38:25.691Z,23.77
2023-04-18T09:39:13.898Z,23.78
2023-04-18T09:39:45.672Z,23.79
2023-04-18T09:40:17.688Z,23.79
2023-04-18T09:40:49.709Z,23.8
2023-04-18T09:41:21.738Z,23.8
2023-04-18T09:41:37.688Z,23.8
2023-04-18T09:41:53.650Z,23.8
2023-04-18T09:42:28.182Z,23.8
2023-04-18T09:42:41.653Z,23.81
2023-04-18T09:42:57.709Z,23.81
2023-04-18T09:43:45.693Z,23.82
2023-04-18T09:44:01.647Z,23.82
2023-04-18T09:44:17.825Z,23.82
2023-04-18T09:44:49.649Z,23.82
2023-04-18T09:45:05.664Z,23.83
2023-04-18T09:45:21.698Z,23.83
2023-04-18T09:45:39.708Z,23.83
2023-04-18T09:45:53.726Z,23.84
2023-04-18T09:46:25.773Z,23.84
2023-04-18T09:46:42.237Z,23.84
2023-04-18T09:46:57.686Z,23.84
2023-04-18T09:47:29.738Z,23.85
2023-04-18T09:47:45.746Z,23.85
2023-04-18T09:48:01.710Z,23.85
2023-04-18T09:48:17.686Z,23.86
2023-04-18T09:48:33.694Z,23.86
2023-04-18T09:49:05.723Z,23.86
2023-04-18T09:49:21.697Z,23.86
2023-04-18T09:49:37.687Z,23.86
2023-04-18T09:50:09.695Z,23.86
2023-04-18T09:50:25.708Z,23.86
2023-04-18T09:50:41.727Z,23.86
2023-04-18T09:50:57.718Z,23.86
2023-04-18T09:51:13.748Z,23.86
2023-04-18T09:51:45.693Z,23.86
2023-04-18T09:52:01.717Z,23.87
2023-04-18T09:52:17.687Z,23.87
2023-04-18T09:53:05.708Z,23.87
2023-04-18T09:53:21.686Z,23.87
2023-04-18T09:53:37.694Z,23.87
2023-04-18T09:54:09.722Z,23.87
2023-04-18T09:54:25.742Z,23.87
2023-04-18T09:54:41.674Z,23.87
2023-04-18T09:54:57.801Z,23.88
2023-04-18T09:55:13.707Z,23.88
2023-04-18T09:55:45.687Z,23.87
2023-04-18T09:56:01.715Z,23.87
2023-04-18T09:56:17.789Z,23.87
2023-04-18T09:56:49.705Z,23.87
2023-04-18T09:57:21.847Z,23.87
2023-04-18T09:57:53.734Z,23.87
2023-04-18T09:58:41.809Z,23.88
2023-04-18T09:58:57.763Z,23.88
2023-04-18T09:59:45.797Z,23.88
2023-04-18T10:00:01.873Z,23.88
2023-04-18T10:00:49.830Z,23.88
2023-04-18T10:01:06.145Z,23.88
2023-04-18T10:01:22.365Z,23.88
2023-04-18T10:01:54.053Z,23.88
2023-04-18T10:02:10.113Z,23.88
2023-04-18T10:02:26.116Z,23.88
2023-04-18T10:02:42.157Z,23.88
2023-04-18T10:02:58.251Z,23.88
2023-04-18T10:03:14.197Z,23.89
2023-04-18T10:03:30.127Z,23.89
2023-04-18T10:03:46.234Z,23.89
2023-04-18T10:04:02.360Z,23.89
2023-04-18T10:04:18.299Z,23.89
2023-04-18T10:04:50.170Z,23.89
2023-04-18T10:05:06.363Z,23.89
2023-04-18T10:05:22.133Z,23.89
2023-04-18T10:06:10.246Z,23.89
2023-04-18T10:06:26.161Z,23.89
2023-04-18T10:06:42.143Z,23.89
2023-04-18T10:07:14.383Z,23.89
2023-04-18T10:07:30.249Z,23.89
2023-04-18T10:07:46.570Z,23.9
2023-04-18T10:08:02.377Z,23.9
2023-04-18T10:08:18.292Z,23.9
2023-04-18T10:08:34.266Z,23.9
2023-04-18T10:08:50.245Z,23.91
2023-04-18T10:09:06.286Z,23.91
2023-04-18T10:09:22.279Z,23.9
2023-04-18T10:09:38.272Z,23.91
2023-04-18T10:10:10.203Z,23.91
2023-04-18T10:10:26.223Z,23.91
2023-04-18T10:10:42.438Z,23.91
2023-04-18T10:11:30.328Z,23.91
2023-04-18T10:11:46.222Z,23.91
2023-04-18T10:12:02.293Z,23.91
2023-04-18T10:12:34.284Z,23.91
2023-04-18T10:12:50.286Z,23.91
2023-04-18T10:13:06.377Z,23.91
2023-04-18T10:13:22.388Z,23.91
2023-04-18T10:13:38.280Z,23.91
2023-04-18T10:13:54.392Z,23.91
2023-04-18T10:14:42.203Z,23.91
2023-04-18T10:14:58.212Z,23.91
2023-04-18T10:15:46.249Z,23.92
2023-04-18T10:16:02.277Z,23.92
2023-04-18T10:16:18.320Z,23.92
2023-04-18T10:17:06.247Z,23.93
2023-04-18T10:17:22.250Z,23.93
2023-04-18T10:18:03.530Z,23.93
2023-04-18T10:18:10.290Z,23.93
2023-04-18T10:18:26.304Z,23.93
2023-04-18T10:18:58.265Z,23.93
2023-04-18T10:19:14.436Z,23.93
2023-04-18T10:19:30.299Z,23.93
2023-04-18T10:20:02.277Z,23.94
2023-04-18T10:20:18.296Z,23.95
2023-04-18T10:20:34.264Z,23.95
2023-04-18T10:20:50.282Z,23.95
2023-04-18T10:21:22.407Z,23.95
2023-04-18T10:21:38.343Z,23.95
2023-04-18T10:21:54.345Z,23.96
2023-04-18T10:22:10.341Z,23.96
2023-04-18T10:22:26.352Z,23.96
2023-04-18T10:22:42.510Z,23.96
2023-04-18T10:22:58.346Z,23.97
2023-04-18T10:23:14.351Z,23.97
2023-04-18T10:23:30.353Z,23.98
2023-04-18T10:24:02.342Z,23.98
2023-04-18T10:24:18.361Z,23.98
2023-04-18T10:24:34.345Z,23.98
2023-04-18T10:24:50.463Z,23.98
2023-04-18T10:25:06.424Z,23.99
2023-04-18T10:25:22.370Z,23.99
2023-04-18T10:25:38.398Z,24
2023-04-18T10:25:54.393Z,24
2023-04-18T10:26:10.383Z,24
2023-04-18T10:26:42.375Z,24.02
2023-04-18T10:26:58.427Z,24.02
2023-04-18T10:27:14.405Z,24.02
2023-04-18T10:27:46.397Z,24.02
2023-04-18T10:28:02.584Z,24.02
2023-04-18T10:28:18.464Z,24.03
2023-04-18T10:28:34.444Z,24.04
2023-04-18T10:28:50.510Z,24.04
2023-04-18T10:29:06.521Z,24.04
2023-04-18T10:29:22.484Z,24.05
2023-04-18T10:29:38.548Z,24.05
2023-04-18T10:29:54.549Z,24.05
2023-04-18T10:30:10.546Z,24.05
2023-04-18T10:30:42.558Z,24.06
2023-04-18T10:30:58.582Z,24.07
2023-04-18T10:31:14.560Z,24.07
2023-04-18T10:31:46.670Z,24.07
2023-04-18T10:32:02.590Z,24.07
2023-04-18T10:32:18.611Z,24.07
2023-04-18T10:32:34.670Z,24.07
2023-04-18T10:32:50.697Z,24.08
2023-04-18T10:33:30.534Z,24.09
2023-04-18T10:33:41.978Z,24.09
2023-04-18T10:34:03.728Z,24.09
2023-04-18T10:34:10.640Z,24.09
2023-04-18T10:34:42.681Z,24.09
2023-04-18T10:34:58.661Z,24.1
2023-04-18T10:35:14.844Z,24.1
2023-04-18T10:35:30.705Z,24.1
2023-04-18T10:35:46.650Z,24.11
2023-04-18T10:36:02.706Z,24.11
2023-04-18T10:36:18.715Z,24.11
2023-04-18T10:36:34.763Z,24.11
2023-04-18T10:36:50.682Z,24.11
2023-04-18T10:37:06.692Z,24.11
2023-04-18T10:37:22.710Z,24.11
2023-04-18T10:37:38.713Z,24.11
2023-04-18T10:37:54.724Z,24.11
2023-04-18T10:38:10.707Z,24.11
2023-04-18T10:38:42.693Z,24.11
2023-04-18T10:38:58.707Z,24.11
2023-04-18T10:39:14.731Z,24.11
2023-04-18T10:39:30.737Z,24.11
2023-04-18T10:40:02.759Z,24.12
2023-04-18T10:40:18.790Z,24.12
2023-04-18T10:40:34.792Z,24.12
2023-04-18T10:40:50.786Z,24.12
2023-04-18T10:41:06.776Z,24.12
2023-04-18T10:41:22.776Z,24.12
2023-04-18T10:41:38.789Z,24.12
2023-04-18T10:41:54.780Z,24.12
2023-04-18T10:42:10.795Z,24.12
2023-04-18T10:42:26.796Z,24.12
2023-04-18T10:42:42.854Z,24.12
2023-04-18T10:42:58.843Z,24.13
2023-04-18T10:43:14.914Z,24.13
2023-04-18T10:43:30.936Z,24.13
2023-04-18T10:43:46.967Z,24.13
2023-04-18T10:44:18.955Z,24.13
2023-04-18T10:44:34.946Z,24.13
2023-04-18T10:44:51.016Z,24.13
2023-04-18T10:45:06.975Z,24.13
2023-04-18T10:45:22.963Z,24.13
2023-04-18T10:45:38.962Z,24.13
2023-04-18T10:45:54.973Z,24.13
2023-04-18T10:46:23.965Z,24.13
2023-04-18T10:46:32.609Z,24.13
2023-04-18T10:46:43.083Z,24.13
2023-04-18T10:46:59.009Z,24.13
2023-04-18T10:47:15.005Z,24.14
2023-04-18T10:47:31.247Z,24.14
2023-04-18T10:47:47.011Z,24.13
2023-04-18T10:48:19.029Z,24.14
2023-04-18T10:48:38.540Z,24.14
2023-04-18T10:48:50.980Z,24.14
2023-04-18T10:49:06.962Z,24.14
2023-04-18T10:49:25.361Z,24.14
2023-04-18T10:49:39.008Z,24.14
2023-04-18T10:49:54.991Z,24.14
2023-04-18T10:50:11.035Z,24.14
2023-04-18T10:50:26.997Z,24.14
2023-04-18T10:50:43.009Z,24.14
2023-04-18T10:50:58.992Z,24.14
2023-04-18T10:51:15.035Z,24.14
2023-04-18T10:51:31.026Z,24.14
2023-04-18T10:51:46.981Z,24.14
2023-04-18T10:52:02.996Z,24.14
2023-04-18T10:52:19.124Z,24.14
2023-04-18T10:52:35.058Z,24.14
2023-04-18T10:52:50.986Z,24.14
2023-04-18T10:53:06.963Z,24.14
2023-04-18T10:53:23.002Z,24.14
2023-04-18T10:53:38.983Z,24.14
2023-04-18T10:53:54.994Z,24.14
2023-04-18T10:54:10.974Z,24.14
2023-04-18T10:54:26.944Z,24.14
2023-04-18T10:54:42.983Z,24.14
2023-04-18T10:54:59.284Z,24.14
2023-04-18T10:55:15.016Z,24.14
2023-04-18T10:55:30.995Z,24.14
2023-04-18T10:55:46.956Z,24.14
2023-04-18T10:56:03.007Z,24.13
2023-04-18T10:56:18.960Z,24.13
2023-04-18T10:56:34.959Z,24.13
2023-04-18T10:57:06.939Z,24.13
2023-04-18T10:57:23.010Z,24.13
2023-04-18T10:57:54.976Z,24.13
2023-04-18T10:58:10.979Z,24.12
2023-04-18T10:58:26.956Z,24.12
2023-04-18T10:58:42.994Z,24.11
2023-04-18T10:58:58.962Z,24.11
2023-04-18T10:59:14.956Z,24.11
2023-04-18T10:59:30.992Z,24.11
2023-04-18T10:59:46.955Z,24.11
2023-04-18T11:00:02.947Z,24.11
2023-04-18T11:00:18.984Z,24.11
2023-04-18T11:00:35.010Z,24.11
2023-04-18T11:00:51.041Z,24.1
2023-04-18T11:01:06.969Z,24.1
2023-04-18T11:01:22.991Z,24.1
2023-04-18T11:01:39.075Z,24.09
2023-04-18T11:01:55.036Z,24.09
2023-04-18T11:02:11.000Z,24.09
2023-04-18T11:02:27.077Z,24.09
2023-04-18T11:02:43.121Z,24.09
2023-04-18T11:03:15.071Z,24.08
2023-04-18T11:03:31.104Z,24.08
2023-04-18T11:03:47.045Z,24.07
2023-04-18T11:04:19.461Z,24.07
2023-04-18T11:04:35.019Z,24.07
2023-04-18T11:04:50.983Z,24.07
2023-04-18T11:05:38.970Z,24.05
2023-04-18T11:05:54.997Z,24.05
2023-04-18T11:06:10.967Z,24.05
2023-04-18T11:06:26.952Z,24.05
2023-04-18T11:06:59.044Z,24.05
2023-04-18T11:07:14.968Z,24.05
2023-04-18T11:07:30.964Z,24.04
2023-04-18T11:08:03.001Z,24.04
2023-04-18T11:08:18.966Z,24.04
2023-04-18T11:08:34.941Z,24.03
2023-04-18T11:08:50.967Z,24.03
2023-04-18T11:09:07.257Z,24.02
2023-04-18T11:09:22.967Z,24.02
2023-04-18T11:09:54.989Z,24.02
2023-04-18T11:10:10.976Z,24.02
2023-04-18T11:10:27.066Z,24.02
2023-04-18T11:10:43.006Z,24.01
2023-04-18T11:10:58.985Z,24.01
2023-04-18T11:11:14.998Z,24
2023-04-18T11:11:30.979Z,24
2023-04-18T11:11:46.956Z,24
2023-04-18T11:12:02.991Z,24
2023-04-18T11:12:36.474Z,23.99
2023-04-18T11:12:51.059Z,23.99
2023-04-18T11:13:06.958Z,23.98
2023-04-18T11:13:22.997Z,23.98
2023-04-18T11:13:55.008Z,23.98
2023-04-18T11:14:11.011Z,23.98
2023-04-18T11:14:26.973Z,23.98
2023-04-18T11:14:42.994Z,23.98
2023-04-18T11:14:58.990Z,23.97
2023-04-18T11:15:15.015Z,23.97
2023-04-18T11:15:31.246Z,23.96
2023-04-18T11:15:47.004Z,23.96
2023-04-18T11:16:03.039Z,23.96
2023-04-18T11:16:35.037Z,23.95
2023-04-18T11:16:51.105Z,23.95
2023-04-18T11:17:06.986Z,23.95
2023-04-18T11:17:23.071Z,23.95
2023-04-18T11:17:39.013Z,23.95
2023-04-18T11:17:55.077Z,23.95
2023-04-18T11:18:11.060Z,23.95
2023-04-18T11:18:26.984Z,23.94
2023-04-18T11:18:43.014Z,23.93
2023-04-18T11:19:15.029Z,23.93
2023-04-18T11:19:31.024Z,23.93
2023-04-18T11:19:46.991Z,23.93
2023-04-18T11:20:03.043Z,23.93
2023-04-18T11:20:35.034Z,23.93
2023-04-18T11:20:51.021Z,23.93
2023-04-18T11:21:06.973Z,23.93
2023-04-18T11:21:23.004Z,23.92
2023-04-18T11:21:39.004Z,23.92
2023-04-18T11:21:55.047Z,23.91
2023-04-18T11:22:11.043Z,23.91
2023-04-18T11:22:26.989Z,23.91
2023-04-18T11:22:43.031Z,23.91
2023-04-18T11:23:15.043Z,23.91
2023-04-18T11:23:31.043Z,23.91
2023-04-18T11:23:46.993Z,23.91
2023-04-18T11:24:03.042Z,23.91
2023-04-18T11:24:19.032Z,23.9
2023-04-18T11:24:35.032Z,23.89
2023-04-18T11:24:51.023Z,23.89
2023-04-18T11:25:06.991Z,23.89
2023-04-18T11:25:23.067Z,23.89
2023-04-18T11:25:39.035Z,23.89
2023-04-18T11:25:55.025Z,23.89
2023-04-18T11:26:11.043Z,23.89
2023-04-18T11:26:27.077Z,23.89
2023-04-18T11:26:43.096Z,23.89
2023-04-18T11:26:59.108Z,23.89
2023-04-18T11:27:15.080Z,23.88
2023-04-18T11:27:31.089Z,23.88
2023-04-18T11:27:47.101Z,23.88
2023-04-18T11:28:03.107Z,23.88
2023-04-18T11:28:19.087Z,23.88
2023-04-18T11:28:35.109Z,23.88
2023-04-18T11:28:51.084Z,23.87
2023-04-18T11:29:07.075Z,23.87
2023-04-18T11:29:23.105Z,23.86
2023-04-18T11:29:39.130Z,23.86
2023-04-18T11:29:55.122Z,23.86
2023-04-18T11:30:11.104Z,23.86
2023-04-18T11:30:27.077Z,23.86
2023-04-18T11:30:43.119Z,23.86
2023-04-18T11:30:59.113Z,23.86
2023-04-18T11:31:15.100Z,23.86
2023-04-18T11:31:31.126Z,23.86
2023-04-18T11:31:47.140Z,23.86
2023-04-18T11:32:03.152Z,23.86
2023-04-18T11:32:19.186Z,23.85
2023-04-18T11:32:35.208Z,23.85
2023-04-18T11:32:51.150Z,23.84
2023-04-18T11:33:07.157Z,23.84
2023-04-18T11:33:23.180Z,23.84
2023-04-18T11:33:39.129Z,23.84
2023-04-18T11:33:55.140Z,23.84
2023-04-18T11:34:11.192Z,23.84
2023-04-18T11:34:27.109Z,23.84
2023-04-18T11:34:43.135Z,23.84
2023-04-18T11:34:59.317Z,23.84
2023-04-18T11:35:15.144Z,23.84
2023-04-18T11:35:31.118Z,23.84
2023-04-18T11:35:47.103Z,23.84
2023-04-18T11:36:03.289Z,23.84
2023-04-18T11:36:19.110Z,23.83
2023-04-18T11:36:35.138Z,23.83
2023-04-18T11:36:51.173Z,23.83
2023-04-18T11:37:07.126Z,23.83
2023-04-18T11:37:23.169Z,23.83
2023-04-18T11:37:39.177Z,23.82
2023-04-18T11:37:55.175Z,23.82
2023-04-18T11:38:11.163Z,23.82
2023-04-18T11:38:27.169Z,23.82
2023-04-18T11:38:43.192Z,23.82
2023-04-18T11:39:15.162Z,23.82
2023-04-18T11:39:31.190Z,23.82
2023-04-18T11:39:47.133Z,23.82
2023-04-18T11:40:03.167Z,23.82
2023-04-18T11:40:19.195Z,23.82
2023-04-18T11:40:35.166Z,23.82
2023-04-18T11:40:51.395Z,23.81
2023-04-18T11:41:07.164Z,23.81
2023-04-18T11:41:23.200Z,23.81
2023-04-18T11:41:39.185Z,23.81
2023-04-18T11:41:55.237Z,23.8
2023-04-18T11:42:11.185Z,23.8
2023-04-18T11:42:27.166Z,23.8
2023-04-18T11:42:43.206Z,23.8
2023-04-18T11:42:59.208Z,23.8
2023-04-18T11:43:15.165Z,23.8
2023-04-18T11:43:31.210Z,23.8
2023-04-18T11:43:47.217Z,23.8
2023-04-18T11:44:03.220Z,23.8
2023-04-18T11:44:19.249Z,23.8
2023-04-18T11:44:36.199Z,23.8
2023-04-18T11:44:51.216Z,23.8
2023-04-18T11:45:07.210Z,23.8
2023-04-18T11:45:23.227Z,23.79
2023-04-18T11:45:39.279Z,23.79
2023-04-18T11:45:55.319Z,23.79
2023-04-18T11:46:11.242Z,23.79
2023-04-18T11:46:43.236Z,23.79
2023-04-18T11:46:59.229Z,23.79
2023-04-18T11:47:15.250Z,23.79
2023-04-18T11:47:31.270Z,23.79
2023-04-18T11:47:47.270Z,23.79
2023-04-18T11:48:03.300Z,23.79
2023-04-18T11:48:19.261Z,23.79
2023-04-18T11:48:35.324Z,23.79
2023-04-18T11:48:51.287Z,23.78
2023-04-18T11:49:07.251Z,23.78
2023-04-18T11:49:23.264Z,23.78
2023-04-18T11:49:39.289Z,23.78
2023-04-18T11:49:56.953Z,23.78
2023-04-18T11:50:11.292Z,23.78
2023-04-18T11:50:27.296Z,23.78
2023-04-18T11:50:43.286Z,23.77
2023-04-18T11:50:59.265Z,23.77
2023-04-18T11:51:15.299Z,23.77
2023-04-18T11:51:31.283Z,23.77
2023-04-18T11:51:47.280Z,23.77
2023-04-18T11:52:03.289Z,23.77
2023-04-18T11:52:19.290Z,23.77
2023-04-18T11:52:35.300Z,23.77
2023-04-18T11:52:51.289Z,23.77
2023-04-18T11:53:07.248Z,23.77
2023-04-18T11:53:23.332Z,23.77
2023-04-18T11:53:39.322Z,23.77
2023-04-18T11:53:55.283Z,23.77
2023-04-18T11:54:11.310Z,23.77
2023-04-18T11:54:27.276Z,23.77
2023-04-18T11:54:43.311Z,23.77
2023-04-18T11:54:59.307Z,23.77
2023-04-18T11:55:15.295Z,23.77
2023-04-18T11:55:31.315Z,23.77
2023-04-18T11:55:47.303Z,23.77
2023-04-18T11:56:03.319Z,23.77
2023-04-18T11:56:19.317Z,23.77
2023-04-18T11:56:36.815Z,23.77
2023-04-18T11:56:51.329Z,23.77
2023-04-18T11:57:07.315Z,23.77
2023-04-18T11:57:23.333Z,23.77
2023-04-18T11:57:39.333Z,23.77
2023-04-18T11:57:55.314Z,23.77
2023-04-18T11:58:11.345Z,23.77
2023-04-18T11:58:27.322Z,23.77
2023-04-18T11:58:43.331Z,23.77
2023-04-18T11:58:59.339Z,23.77
2023-04-18T11:59:15.352Z,23.77
2023-04-18T11:59:31.320Z,23.77
2023-04-18T11:59:47.340Z,23.76
2023-04-18T12:00:03.356Z,23.76
2023-04-18T12:00:19.342Z,23.76
2023-04-18T12:00:35.376Z,23.76
2023-04-18T12:00:51.352Z,23.77
2023-04-18T12:01:07.346Z,23.77
2023-04-18T12:01:23.345Z,23.76
2023-04-18T12:01:39.351Z,23.77
2023-04-18T12:01:58.705Z,23.77
2023-04-18T12:02:27.579Z,23.77
2023-04-18T12:02:43.493Z,23.77
2023-04-18T12:02:59.669Z,23.77
2023-04-18T12:03:15.536Z,23.77
2023-04-18T12:03:31.582Z,23.77
2023-04-18T12:03:47.526Z,23.77
2023-04-18T12:04:03.729Z,23.77
2023-04-18T12:04:19.879Z,23.77
2023-04-18T12:04:35.586Z,23.77
2023-04-18T12:04:51.655Z,23.77
2023-04-18T12:05:07.816Z,23.77
2023-04-18T12:05:23.622Z,23.77
2023-04-18T12:05:39.737Z,23.77
2023-04-18T12:05:55.492Z,23.77
2023-04-18T12:06:11.410Z,23.77
2023-04-18T12:06:27.494Z,23.77
2023-04-18T12:06:43.367Z,23.77
2023-04-18T12:06:59.351Z,23.77
2023-04-18T12:07:15.361Z,23.77
2023-04-18T12:07:31.367Z,23.77
2023-04-18T12:07:47.360Z,23.77
2023-04-18T12:08:03.364Z,23.77
2023-04-18T12:08:19.415Z,23.77
2023-04-18T12:08:35.406Z,23.77
2023-04-18T12:08:53.605Z,23.77
2023-04-18T12:09:07.364Z,23.77
2023-04-18T12:09:23.401Z,23.77
2023-04-18T12:09:39.403Z,23.77
2023-04-18T12:09:55.406Z,23.77
2023-04-18T12:10:11.412Z,23.77
2023-04-18T12:10:27.374Z,23.77
2023-04-18T12:10:43.402Z,23.77
2023-04-18T12:10:59.405Z,23.77
2023-04-18T12:11:15.427Z,23.78
2023-04-18T12:11:31.377Z,23.78
2023-04-18T12:11:47.405Z,23.78
2023-04-18T12:12:03.430Z,23.78
2023-04-18T12:12:19.426Z,23.78
2023-04-18T12:12:35.401Z,23.78
2023-04-18T12:12:51.473Z,23.78
2023-04-18T12:13:07.398Z,23.78
2023-04-18T12:13:23.409Z,23.78
2023-04-18T12:13:39.430Z,23.78
2023-04-18T12:13:55.420Z,23.78
2023-04-18T12:14:11.429Z,23.78
2023-04-18T12:14:43.422Z,23.78
2023-04-18T12:14:59.459Z,23.78
2023-04-18T12:15:15.422Z,23.77
2023-04-18T12:15:47.455Z,23.78
2023-04-18T12:16:04.005Z,23.77
2023-04-18T12:16:19.500Z,23.78
2023-04-18T12:16:35.645Z,23.78
2023-04-18T12:16:51.443Z,23.78
2023-04-18T12:17:07.421Z,23.78
2023-04-18T12:17:23.463Z,23.78
2023-04-18T12:17:39.519Z,23.78
2023-04-18T12:17:55.481Z,23.78
2023-04-18T12:18:11.446Z,23.78
2023-04-18T12:18:27.417Z,23.78
2023-04-18T12:18:43.438Z,23.78
2023-04-18T12:18:59.457Z,23.78
2023-04-18T12:19:15.444Z,23.78
2023-04-18T12:19:31.458Z,23.77
2023-04-18T12:19:49.281Z,23.77
2023-04-18T12:20:03.445Z,23.77
2023-04-18T12:20:19.466Z,23.77
2023-04-18T12:20:35.481Z,23.77
2023-04-18T12:20:51.442Z,23.77
2023-04-18T12:21:07.446Z,23.77
2023-04-18T12:21:23.483Z,23.77
2023-04-18T12:21:39.435Z,23.77
2023-04-18T12:21:55.472Z,23.77
2023-04-18T12:22:11.440Z,23.77
2023-04-18T12:22:27.437Z,23.77
2023-04-18T12:22:43.466Z,23.77
2023-04-18T12:22:59.450Z,23.77
2023-04-18T12:23:15.446Z,23.77
2023-04-18T12:23:31.442Z,23.77
2023-04-18T12:23:47.468Z,23.77
2023-04-18T12:24:03.479Z,23.77
2023-04-18T12:24:19.474Z,23.77
2023-04-18T12:24:35.494Z,23.77
2023-04-18T12:24:51.482Z,23.77
2023-04-18T12:25:07.450Z,23.77
2023-04-18T12:25:26.672Z,23.77
2023-04-18T12:25:39.480Z,23.77
2023-04-18T12:25:55.490Z,23.77
2023-04-18T12:26:11.500Z,23.77
2023-04-18T12:26:27.466Z,23.77
2023-04-18T12:26:43.481Z,23.77
2023-04-18T12:26:59.513Z,23.77
2023-04-18T12:27:15.481Z,23.77
2023-04-18T12:27:31.509Z,23.77
2023-04-18T12:27:47.467Z,23.77
2023-04-18T12:28:03.490Z,23.77
2023-04-18T12:28:19.462Z,23.77
2023-04-18T12:28:35.500Z,23.77
2023-04-18T12:28:51.517Z,23.77
2023-04-18T12:29:07.467Z,23.77
2023-04-18T12:29:23.490Z,23.77
2023-04-18T12:29:39.537Z,23.77
2023-04-18T12:29:55.500Z,23.77
2023-04-18T12:30:11.500Z,23.77
2023-04-18T12:30:27.476Z,23.77
2023-04-18T12:30:43.504Z,23.77
2023-04-18T12:31:15.541Z,23.77
2023-04-18T12:31:31.572Z,23.77
2023-04-18T12:31:47.547Z,23.77
2023-04-18T12:32:03.560Z,23.77
2023-04-18T12:32:19.504Z,23.77